To NAV CANADA Home Page Login to a new session Search on AWWS site Feedback and Comments Disclaimer Vers la page française équivalente Tips FAQ What's new on the site To the Forecasts and Observations / NOTAM section To "File a Flight Plan" website Publications and other links Update of the User's profile FIC Telephone Numbers My Weather Data Folder Route Weather Data Regional Weather Data Local Weather Data To the Forecasts and Observations / NOTAM section
Request Generated 06/26/2017 at 22:30:14 UTC . Weather information available at that time is displayed.

METAR/TAF

PRINCE ALBERT (GLASS FIELD)/SK    

METAR CYPA 262200Z 18011G18KT 15SM OVC250 22/03 A2992 RMK CI8 SLP143
DENSITY ALT 2600FT=
METAR CYPA 262100Z 20013KT 150V220 15SM OVC250 23/05 A2995 RMK CI8
SLP153 DENSITY ALT 2700FT=
METAR CYPA 262000Z 20013KT 15SM BKN280 22/03 A2998 RMK CI7 SLP164
DENSITY ALT 2500FT=

TAF CYPA 261838Z 2619/2707 18015G25KT P6SM BKN250
BECMG 2623/2701 16010KT
FM270200 13010KT P6SM BKN140
RMK NXT FCST BY 270100Z=
Your time UTC time
Weather data provided by Environment Canada and NAV CANADA